createdAt,value
2019-03-19T00:00:33.973Z,63.20
2019-03-19T00:03:07.121Z,63.90
2019-03-19T00:05:36.061Z,63.70
2019-03-19T00:10:34.115Z,63.20
2019-03-19T00:13:03.209Z,63.80
2019-03-19T00:15:32.292Z,63.10
2019-03-19T00:18:01.299Z,64.20
2019-03-19T00:20:30.407Z,64.30
2019-03-19T00:22:59.552Z,64.10
2019-03-19T00:25:30.279Z,64.00
2019-03-19T00:27:59.671Z,65.20
2019-03-19T00:30:29.101Z,64.40
2019-03-19T00:32:58.356Z,64.70
2019-03-19T00:35:29.143Z,64.60
2019-03-19T00:37:58.351Z,64.40
2019-03-19T00:40:27.636Z,64.70
2019-03-19T00:42:56.744Z,64.40
2019-03-19T00:45:27.049Z,64.10
2019-03-19T00:47:56.109Z,65.40
2019-03-19T00:50:25.261Z,64.50
2019-03-19T00:52:54.539Z,64.70
2019-03-19T00:55:23.714Z,64.20
2019-03-19T00:57:52.939Z,65.10
2019-03-19T01:00:22.201Z,65.50
2019-03-19T01:02:51.311Z,65.00
2019-03-19T01:05:20.480Z,64.90
2019-03-19T01:07:49.555Z,65.30
2019-03-19T01:10:18.923Z,64.30
2019-03-19T01:12:48.095Z,64.80
2019-03-19T01:15:17.097Z,65.00
2019-03-19T01:17:46.316Z,64.80
2019-03-19T01:20:16.169Z,64.70
2019-03-19T01:22:45.177Z,64.40
2019-03-19T01:25:14.355Z,65.00
2019-03-19T01:27:43.533Z,64.60
2019-03-19T01:30:17.096Z,64.70
2019-03-19T01:32:46.167Z,65.80
2019-03-19T01:35:15.113Z,66.00
2019-03-19T01:37:44.313Z,65.40
2019-03-19T01:40:13.738Z,64.80
2019-03-19T01:42:42.881Z,65.60
2019-03-19T01:45:17.855Z,64.80
2019-03-19T01:47:47.115Z,66.10
2019-03-19T01:50:16.792Z,66.00
2019-03-19T01:55:15.318Z,65.10
2019-03-19T01:57:44.434Z,65.60
2019-03-19T02:00:15.750Z,66.20
2019-03-19T02:02:45.831Z,65.70
2019-03-19T02:05:14.904Z,65.70
2019-03-19T02:07:45.239Z,65.20
2019-03-19T02:10:15.006Z,65.70
2019-03-19T02:12:45.887Z,65.20
2019-03-19T02:15:17.220Z,65.40
2019-03-19T02:17:46.398Z,65.30
2019-03-19T02:20:16.461Z,65.70
2019-03-19T02:22:45.915Z,65.60
2019-03-19T02:25:16.631Z,65.90
2019-03-19T02:27:45.778Z,66.10
2019-03-19T02:30:16.128Z,65.50
2019-03-19T02:32:45.382Z,65.60
2019-03-19T02:35:14.745Z,66.10
2019-03-19T02:37:44.006Z,66.20
2019-03-19T02:40:15.106Z,66.10
2019-03-19T02:42:44.305Z,65.60
2019-03-19T02:45:14.343Z,65.50
2019-03-19T02:47:43.428Z,65.50
2019-03-19T02:50:16.536Z,65.60
2019-03-19T02:52:45.707Z,66.10
2019-03-19T02:55:15.079Z,65.80
2019-03-19T02:57:44.400Z,65.90
2019-03-19T03:00:17.640Z,65.70
2019-03-19T03:02:46.750Z,66.10
2019-03-19T03:05:19.987Z,65.70
2019-03-19T03:07:50.391Z,65.70
2019-03-19T03:10:19.637Z,66.20
2019-03-19T03:12:48.819Z,66.70
2019-03-19T03:15:18.121Z,66.50
2019-03-19T03:17:47.485Z,65.90
2019-03-19T03:20:18.461Z,66.80
2019-03-19T03:22:47.668Z,67.00
2019-03-19T03:25:17.851Z,66.60
2019-03-19T03:27:47.128Z,67.50
2019-03-19T03:30:22.984Z,66.40
2019-03-19T03:32:52.477Z,67.20
2019-03-19T03:35:21.619Z,66.20
2019-03-19T03:37:51.173Z,66.40
2019-03-19T03:40:23.521Z,67.30
2019-03-19T03:42:52.772Z,67.70
2019-03-19T03:45:22.044Z,67.30
2019-03-19T03:47:51.320Z,66.70
2019-03-19T03:50:20.645Z,66.50
2019-03-19T03:52:49.865Z,66.30
2019-03-19T03:55:21.558Z,66.30
2019-03-19T03:57:51.270Z,66.40
2019-03-19T04:00:24.014Z,66.30
2019-03-19T04:02:53.678Z,66.60
2019-03-19T04:05:23.061Z,66.70
2019-03-19T04:07:52.257Z,67.30
2019-03-19T04:10:21.515Z,67.40
2019-03-19T04:12:50.725Z,66.10
2019-03-19T04:15:19.987Z,66.80
2019-03-19T04:17:49.303Z,67.80
2019-03-19T04:20:18.604Z,67.70
2019-03-19T04:22:47.851Z,67.00
2019-03-19T04:25:17.192Z,67.40
2019-03-19T04:27:46.341Z,67.30
2019-03-19T04:30:21.684Z,67.20
2019-03-19T04:32:51.173Z,67.50
2019-03-19T04:35:20.462Z,67.10
2019-03-19T04:37:49.810Z,67.20
2019-03-19T04:40:18.871Z,67.80
2019-03-19T04:42:48.018Z,67.20
2019-03-19T04:45:17.903Z,68.00
2019-03-19T04:47:47.116Z,67.80
2019-03-19T04:50:16.881Z,67.60
2019-03-19T04:52:46.437Z,67.30
2019-03-19T04:55:16.244Z,67.00
2019-03-19T04:57:45.481Z,67.30
2019-03-19T05:00:19.723Z,67.60
2019-03-19T05:02:48.946Z,67.60
2019-03-19T05:05:17.999Z,67.30
2019-03-19T05:07:47.108Z,67.30
2019-03-19T05:10:16.813Z,68.20
2019-03-19T05:12:46.184Z,67.60
2019-03-19T05:15:15.448Z,67.80
2019-03-19T05:17:44.804Z,67.20
2019-03-19T05:20:17.288Z,67.70
2019-03-19T05:22:46.508Z,67.80
2019-03-19T05:25:15.600Z,67.50
2019-03-19T05:27:44.735Z,67.50
2019-03-19T05:30:16.124Z,67.60
2019-03-19T05:32:45.152Z,67.70
2019-03-19T05:35:14.246Z,68.10
2019-03-19T05:37:43.578Z,67.70
2019-03-19T05:40:13.466Z,68.30
2019-03-19T05:42:42.756Z,67.80
2019-03-19T05:45:15.164Z,67.60
2019-03-19T05:47:44.118Z,68.50
2019-03-19T05:50:15.227Z,67.70
2019-03-19T05:52:44.459Z,67.80
2019-03-19T05:55:13.465Z,67.60
2019-03-19T05:57:49.580Z,67.50
2019-03-19T06:00:15.569Z,67.90
2019-03-19T06:02:44.765Z,67.80
2019-03-19T06:05:14.003Z,68.60
2019-03-19T06:07:42.918Z,68.10
2019-03-19T06:10:15.209Z,68.30
2019-03-19T06:12:44.224Z,68.30
2019-03-19T06:15:14.623Z,69.60
2019-03-19T06:17:43.672Z,68.60
2019-03-19T06:20:17.893Z,67.80
2019-03-19T06:22:47.111Z,68.40
2019-03-19T06:25:16.230Z,68.20
2019-03-19T06:27:45.462Z,68.90
2019-03-19T06:30:24.580Z,68.40
2019-03-19T06:32:53.666Z,69.20
2019-03-19T06:35:22.837Z,69.20
2019-03-19T06:37:52.136Z,68.40
2019-03-19T06:40:23.120Z,70.20
2019-03-19T06:42:52.273Z,69.40
2019-03-19T06:45:23.041Z,69.00
2019-03-19T06:47:52.251Z,69.00
2019-03-19T06:50:21.708Z,68.80
2019-03-19T06:52:50.860Z,70.10
2019-03-19T06:55:20.889Z,69.60
2019-03-19T06:57:50.150Z,69.80
2019-03-19T07:00:23.050Z,70.50
2019-03-19T07:02:52.195Z,70.70
2019-03-19T07:05:21.708Z,70.50
2019-03-19T07:07:50.775Z,71.20
2019-03-19T07:10:23.161Z,70.80
2019-03-19T07:12:53.793Z,70.50
2019-03-19T07:15:23.730Z,70.50
2019-03-19T07:17:55.386Z,70.00
2019-03-19T07:20:28.477Z,69.60
2019-03-19T07:22:57.549Z,69.20
2019-03-19T07:25:26.848Z,68.70
2019-03-19T07:27:55.922Z,68.30
2019-03-19T07:30:25.705Z,68.10
2019-03-19T07:32:54.808Z,68.00
2019-03-19T07:35:23.920Z,68.70
2019-03-19T07:37:53.179Z,68.50
2019-03-19T07:40:22.259Z,67.50
2019-03-19T07:42:51.599Z,67.20
2019-03-19T07:45:22.829Z,67.10
2019-03-19T07:47:52.350Z,67.50
2019-03-19T07:50:24.557Z,67.00
2019-03-19T07:52:53.748Z,67.00
2019-03-19T07:55:22.850Z,66.70
2019-03-19T07:57:51.982Z,66.10
2019-03-19T08:00:21.882Z,66.40
2019-03-19T08:02:51.074Z,65.80
2019-03-19T08:05:20.127Z,65.80
2019-03-19T08:07:49.572Z,65.40
2019-03-19T08:10:21.197Z,65.40
2019-03-19T08:12:50.431Z,65.10
2019-03-19T08:15:21.517Z,65.10
2019-03-19T08:17:50.621Z,65.40
2019-03-19T08:20:19.965Z,64.70
2019-03-19T08:22:49.280Z,65.90
2019-03-19T08:25:18.596Z,64.10
2019-03-19T08:27:47.758Z,62.80
2019-03-19T08:30:24.259Z,62.00
2019-03-19T08:32:52.839Z,59.80
2019-03-19T08:35:22.009Z,61.00
2019-03-19T08:37:51.263Z,61.30
2019-03-19T08:40:20.873Z,59.60
2019-03-19T08:42:50.130Z,57.60
2019-03-19T08:45:23.703Z,57.40
2019-03-19T08:47:53.030Z,56.30
2019-03-19T08:50:22.820Z,55.40
2019-03-19T08:52:52.132Z,53.10
2019-03-19T08:55:22.750Z,51.20
2019-03-19T08:57:51.999Z,51.40
2019-03-19T09:00:26.251Z,53.10
2019-03-19T09:02:55.413Z,52.00
2019-03-19T09:05:24.745Z,51.90
2019-03-19T09:07:54.031Z,48.90
2019-03-19T09:10:23.025Z,49.00
2019-03-19T09:12:52.661Z,47.80
2019-03-19T09:15:24.265Z,48.50
2019-03-19T09:17:53.502Z,47.00
2019-03-19T09:20:22.858Z,45.80
2019-03-19T09:22:51.976Z,46.20
2019-03-19T09:25:21.117Z,46.50
2019-03-19T09:27:50.392Z,44.60
2019-03-19T09:30:20.639Z,44.40
2019-03-19T09:32:49.861Z,44.60
2019-03-19T09:35:19.140Z,45.50
2019-03-19T09:37:58.380Z,45.20
2019-03-19T09:40:23.639Z,45.30
2019-03-19T09:42:52.908Z,42.50
2019-03-19T09:45:21.906Z,44.30
2019-03-19T09:47:51.216Z,43.70
2019-03-19T09:50:25.304Z,40.20
2019-03-19T09:52:54.647Z,41.50
2019-03-19T09:55:23.956Z,43.50
2019-03-19T09:57:53.130Z,41.00
2019-03-19T10:00:23.076Z,43.00
2019-03-19T10:02:52.321Z,40.30
2019-03-19T10:05:21.532Z,41.60
2019-03-19T10:07:50.789Z,41.70
2019-03-19T10:10:22.013Z,39.50
2019-03-19T10:12:51.313Z,38.40
2019-03-19T10:15:20.530Z,37.90
2019-03-19T10:17:49.811Z,37.90
2019-03-19T10:20:22.997Z,37.60
2019-03-19T10:22:55.346Z,37.40
2019-03-19T10:25:24.638Z,39.50
2019-03-19T10:27:53.913Z,40.60
2019-03-19T10:30:23.816Z,38.80
2019-03-19T10:32:53.025Z,39.30
2019-03-19T10:35:22.297Z,40.50
2019-03-19T10:37:51.871Z,40.80
2019-03-19T10:40:21.497Z,41.60
2019-03-19T10:42:50.713Z,40.70
2019-03-19T10:45:21.810Z,41.00
2019-03-19T10:47:51.094Z,37.40
2019-03-19T10:50:26.916Z,38.40
2019-03-19T10:52:56.289Z,37.70
2019-03-19T10:55:25.392Z,37.80
2019-03-19T10:57:54.662Z,35.30
2019-03-19T11:02:53.173Z,33.00
2019-03-19T11:05:23.061Z,33.60
2019-03-19T11:07:52.300Z,34.50
2019-03-19T11:10:21.568Z,33.90
2019-03-19T11:12:50.916Z,35.90
2019-03-19T11:15:24.525Z,37.70
2019-03-19T11:17:53.816Z,39.20
2019-03-19T11:20:23.147Z,39.00
2019-03-19T11:22:52.336Z,38.20
2019-03-19T11:25:26.011Z,36.40
2019-03-19T11:27:55.208Z,36.80
2019-03-19T11:30:29.433Z,38.20
2019-03-19T11:32:57.839Z,36.50
2019-03-19T11:35:27.065Z,36.80
2019-03-19T11:37:56.313Z,39.60
2019-03-19T11:40:26.043Z,37.70
2019-03-19T11:42:55.636Z,35.90
2019-03-19T11:45:25.115Z,33.80
2019-03-19T11:47:54.472Z,34.20
2019-03-19T11:50:25.540Z,35.10
2019-03-19T11:52:54.657Z,34.00
2019-03-19T11:55:23.993Z,33.90
2019-03-19T11:57:53.367Z,30.90
2019-03-19T12:00:43.559Z,31.60
2019-03-19T12:03:16.073Z,29.70
2019-03-19T12:05:43.700Z,33.50
2019-03-19T12:08:12.952Z,33.40
2019-03-19T12:10:42.158Z,34.20
2019-03-19T12:13:11.221Z,31.90
2019-03-19T12:15:40.359Z,32.40
2019-03-19T12:18:09.610Z,31.30
2019-03-19T12:20:38.948Z,31.90
2019-03-19T12:23:08.327Z,31.60
2019-03-19T12:25:37.530Z,30.10
2019-03-19T12:28:06.691Z,30.60
2019-03-19T12:30:35.804Z,31.70
2019-03-19T12:33:05.152Z,32.80
2019-03-19T12:35:34.363Z,31.70
2019-03-19T12:38:03.672Z,31.80
2019-03-19T12:40:37.139Z,31.70
2019-03-19T12:43:03.789Z,29.80
2019-03-19T12:45:33.154Z,29.90
2019-03-19T12:48:02.165Z,30.00
2019-03-19T12:50:31.160Z,29.90
2019-03-19T12:53:00.674Z,30.60
2019-03-19T12:55:29.846Z,30.30
2019-03-19T12:58:01.162Z,29.60
2019-03-19T13:00:34.486Z,29.60
2019-03-19T13:03:00.937Z,30.00
2019-03-19T13:05:30.214Z,29.40
2019-03-19T13:07:59.535Z,30.20
2019-03-19T13:10:28.660Z,29.30
2019-03-19T13:12:57.964Z,28.60
2019-03-19T13:15:27.368Z,28.50
2019-03-19T13:17:56.521Z,29.70
2019-03-19T13:20:25.744Z,29.20
2019-03-19T13:22:54.881Z,29.00
2019-03-19T13:25:25.982Z,28.40
2019-03-19T13:27:55.077Z,28.70
2019-03-19T13:30:32.189Z,29.40
2019-03-19T13:33:01.165Z,30.40
2019-03-19T13:35:30.320Z,30.80
2019-03-19T13:37:59.607Z,31.30
2019-03-19T13:40:28.731Z,32.40
2019-03-19T13:42:58.030Z,33.00
2019-03-19T13:45:27.425Z,33.10
2019-03-19T13:47:56.751Z,33.10
2019-03-19T13:50:26.059Z,32.70
2019-03-19T13:52:55.371Z,33.60
2019-03-19T13:55:24.570Z,33.30
2019-03-19T13:57:53.590Z,33.40
2019-03-19T14:00:22.794Z,33.90
2019-03-19T14:02:51.993Z,34.60
2019-03-19T14:05:21.340Z,35.10
2019-03-19T14:07:50.391Z,34.70
2019-03-19T14:10:20.239Z,36.20
2019-03-19T14:12:49.479Z,36.50
2019-03-19T14:15:19.931Z,35.80
2019-03-19T14:17:49.198Z,35.40
2019-03-19T14:20:18.191Z,35.20
2019-03-19T14:22:48.889Z,35.30
2019-03-19T14:25:17.970Z,35.90
2019-03-19T14:27:47.155Z,36.00
2019-03-19T14:30:26.729Z,36.30
2019-03-19T14:32:55.923Z,36.40
2019-03-19T14:35:25.168Z,37.70
2019-03-19T14:37:54.406Z,37.30
2019-03-19T14:40:24.312Z,37.90
2019-03-19T14:42:53.568Z,37.40
2019-03-19T14:45:22.708Z,37.60
2019-03-19T14:47:52.065Z,37.80
2019-03-19T14:50:27.741Z,38.30
2019-03-19T14:52:56.971Z,37.80
2019-03-19T14:55:26.022Z,37.60
2019-03-19T14:57:55.449Z,37.90
2019-03-19T15:00:24.604Z,38.10
2019-03-19T15:02:53.823Z,38.20
2019-03-19T15:05:23.188Z,38.50
2019-03-19T15:07:52.494Z,38.60
2019-03-19T15:10:22.565Z,38.30
2019-03-19T15:12:51.887Z,38.50
2019-03-19T15:15:23.964Z,38.60
2019-03-19T15:17:53.184Z,39.60
2019-03-19T15:20:29.188Z,39.70
2019-03-19T15:22:58.300Z,39.50
2019-03-19T15:25:27.418Z,39.50
2019-03-19T15:27:56.556Z,40.20
2019-03-19T15:30:25.907Z,39.70
2019-03-19T15:32:55.250Z,40.40
2019-03-19T15:35:24.352Z,39.70
2019-03-19T15:37:53.465Z,39.40
2019-03-19T15:40:22.611Z,40.20
2019-03-19T15:42:51.744Z,39.70
2019-03-19T15:45:23.128Z,40.20
2019-03-19T15:47:52.397Z,40.30
2019-03-19T15:50:21.676Z,39.80
2019-03-19T15:52:51.089Z,40.50
2019-03-19T15:55:20.323Z,40.00
2019-03-19T15:57:49.617Z,40.20
2019-03-19T16:00:19.696Z,40.30
2019-03-19T16:02:49.038Z,40.40
2019-03-19T16:05:18.153Z,40.50
2019-03-19T16:07:47.220Z,41.30
2019-03-19T16:10:19.560Z,41.90
2019-03-19T16:12:48.954Z,41.00
2019-03-19T16:15:22.385Z,41.80
2019-03-19T16:17:51.668Z,41.60
2019-03-19T16:20:21.444Z,41.80
2019-03-19T16:22:50.638Z,42.20
2019-03-19T16:25:19.880Z,42.50
2019-03-19T16:27:49.025Z,42.40
2019-03-19T16:30:21.333Z,42.70
2019-03-19T16:32:50.536Z,43.00
2019-03-19T16:35:19.694Z,43.30
2019-03-19T16:37:50.072Z,43.10
2019-03-19T16:40:20.244Z,44.20
2019-03-19T16:42:49.604Z,43.60
2019-03-19T16:45:18.862Z,43.20
2019-03-19T16:47:48.054Z,43.90
2019-03-19T16:50:18.218Z,44.00
2019-03-19T16:52:47.374Z,44.10
2019-03-19T16:55:17.461Z,43.70
2019-03-19T16:57:48.071Z,44.50
2019-03-19T17:00:22.317Z,44.40
2019-03-19T17:02:50.676Z,44.60
2019-03-19T17:05:20.009Z,44.70
2019-03-19T17:07:49.449Z,44.20
2019-03-19T17:10:26.310Z,44.30
2019-03-19T17:12:55.320Z,44.50
2019-03-19T17:15:24.441Z,44.80
2019-03-19T17:17:53.614Z,45.50
2019-03-19T17:20:22.808Z,45.10
2019-03-19T17:22:52.060Z,44.60
2019-03-19T17:25:30.591Z,45.20
2019-03-19T17:27:59.755Z,45.50
2019-03-19T17:30:34.203Z,45.30
2019-03-19T17:33:03.300Z,45.70
2019-03-19T17:35:32.442Z,45.60
2019-03-19T17:38:01.727Z,46.10
2019-03-19T17:40:40.541Z,47.30
2019-03-19T17:43:01.372Z,46.70
2019-03-19T17:45:30.720Z,47.30
2019-03-19T17:47:59.836Z,47.80
2019-03-19T17:50:33.790Z,47.40
2019-03-19T17:53:02.836Z,47.40
2019-03-19T17:55:32.128Z,48.20
2019-03-19T17:58:01.281Z,47.70
2019-03-19T18:00:31.936Z,48.50
2019-03-19T18:03:01.086Z,48.30
2019-03-19T18:05:30.310Z,48.70
2019-03-19T18:07:59.427Z,49.10
2019-03-19T18:10:28.665Z,49.50
2019-03-19T18:12:57.939Z,50.60
2019-03-19T18:15:27.174Z,50.50
2019-03-19T18:17:56.252Z,49.70
2019-03-19T18:20:25.565Z,50.00
2019-03-19T18:22:54.904Z,50.60
2019-03-19T18:25:24.065Z,50.00
2019-03-19T18:27:53.367Z,50.40
2019-03-19T18:30:24.404Z,50.90
2019-03-19T18:32:53.539Z,51.00
2019-03-19T18:35:22.641Z,51.90
2019-03-19T18:37:51.816Z,51.80
2019-03-19T18:40:21.284Z,51.80
2019-03-19T18:42:50.459Z,52.00
2019-03-19T18:45:20.441Z,51.40
2019-03-19T18:47:49.723Z,52.30
2019-03-19T18:50:20.787Z,52.30
2019-03-19T18:52:50.448Z,52.30
2019-03-19T18:55:19.781Z,52.40
2019-03-19T18:57:48.925Z,52.80
2019-03-19T19:00:18.964Z,52.30
2019-03-19T19:02:50.129Z,52.80
2019-03-19T19:05:19.866Z,53.20
2019-03-19T19:07:49.205Z,52.80
2019-03-19T19:10:21.128Z,53.10
2019-03-19T19:12:50.065Z,54.30
2019-03-19T19:15:23.954Z,54.10
2019-03-19T19:17:53.190Z,54.20
2019-03-19T19:20:22.844Z,54.20
2019-03-19T19:22:52.077Z,54.70
2019-03-19T19:25:25.627Z,54.30
2019-03-19T19:27:55.103Z,54.30
2019-03-19T19:30:30.327Z,54.00
2019-03-19T19:33:02.517Z,54.70
2019-03-19T19:35:32.086Z,55.00
2019-03-19T19:38:03.877Z,54.50
2019-03-19T19:40:35.080Z,55.00
2019-03-19T19:43:05.551Z,55.10
2019-03-19T19:45:35.211Z,56.10
2019-03-19T19:48:06.072Z,55.70
2019-03-19T19:50:36.115Z,55.80
2019-03-19T19:53:05.662Z,55.70
2019-03-19T19:55:35.406Z,56.10
2019-03-19T19:58:05.152Z,56.30
2019-03-19T20:00:34.492Z,56.50
2019-03-19T20:03:11.765Z,56.20
2019-03-19T20:05:34.669Z,57.30
2019-03-19T20:08:04.260Z,57.10
2019-03-19T20:10:33.510Z,57.00
2019-03-19T20:13:02.925Z,57.10
2019-03-19T20:15:32.108Z,57.30
2019-03-19T20:18:01.378Z,56.60
2019-03-19T20:20:32.881Z,57.20
2019-03-19T20:23:02.108Z,57.10
2019-03-19T20:25:31.532Z,56.60
2019-03-19T20:28:00.616Z,57.60
2019-03-19T20:30:29.841Z,57.10
2019-03-19T20:32:59.184Z,57.60
2019-03-19T20:35:28.364Z,57.50
2019-03-19T20:37:57.631Z,57.90
2019-03-19T20:40:26.973Z,57.90
2019-03-19T20:42:56.234Z,58.30
2019-03-19T20:45:29.147Z,59.10
2019-03-19T20:47:58.308Z,59.40
2019-03-19T20:50:35.744Z,58.00
2019-03-19T20:53:05.128Z,58.80
2019-03-19T20:55:34.410Z,59.10
2019-03-19T20:58:03.611Z,59.00
2019-03-19T21:00:32.942Z,59.00
2019-03-19T21:03:02.237Z,59.50
2019-03-19T21:05:31.335Z,58.60
2019-03-19T21:08:00.725Z,58.50
2019-03-19T21:10:29.969Z,58.40
2019-03-19T21:12:59.447Z,58.70
2019-03-19T21:15:31.664Z,59.20
2019-03-19T21:18:00.933Z,59.50
2019-03-19T21:20:30.296Z,59.40
2019-03-19T21:22:59.603Z,59.10
2019-03-19T21:25:28.818Z,59.60
2019-03-19T21:27:58.173Z,59.90
2019-03-19T21:30:27.433Z,59.50
2019-03-19T21:32:56.777Z,59.20
2019-03-19T21:35:26.268Z,59.50
2019-03-19T21:37:55.481Z,59.40
2019-03-19T21:40:24.702Z,61.10
2019-03-19T21:42:54.086Z,60.90
2019-03-19T21:45:23.532Z,59.90
2019-03-19T21:47:52.734Z,59.90
2019-03-19T21:50:23.037Z,60.90
2019-03-19T21:52:52.317Z,61.30
2019-03-19T21:55:21.430Z,59.70
2019-03-19T21:57:50.767Z,61.00
2019-03-19T22:00:24.579Z,60.40
2019-03-19T22:02:53.874Z,61.60
2019-03-19T22:05:22.992Z,60.50
2019-03-19T22:07:52.219Z,61.80
2019-03-19T22:10:21.967Z,61.30
2019-03-19T22:12:51.369Z,61.20
2019-03-19T22:15:26.742Z,61.60
2019-03-19T22:17:56.110Z,62.00
2019-03-19T22:20:25.353Z,62.70
2019-03-19T22:22:54.688Z,63.30
2019-03-19T22:25:24.025Z,62.60
2019-03-19T22:27:53.322Z,61.90
2019-03-19T22:30:22.837Z,63.00
2019-03-19T22:32:52.134Z,62.90
2019-03-19T22:35:21.415Z,62.60
2019-03-19T22:37:50.671Z,63.30
2019-03-19T22:40:19.834Z,63.70
2019-03-19T22:42:49.020Z,64.10
2019-03-19T22:45:18.851Z,63.50
2019-03-19T22:47:48.115Z,63.60
2019-03-19T22:52:48.245Z,63.80
2019-03-19T22:55:28.103Z,64.50
2019-03-19T22:57:48.472Z,63.90
2019-03-19T23:00:38.369Z,65.00
2019-03-19T23:03:08.114Z,64.60
2019-03-19T23:05:37.300Z,63.20
2019-03-19T23:08:06.392Z,63.10
2019-03-19T23:10:37.800Z,63.60
2019-03-19T23:13:12.027Z,63.80
2019-03-19T23:15:41.348Z,63.60
2019-03-19T23:18:10.505Z,64.90
2019-03-19T23:20:39.748Z,64.40
2019-03-19T23:23:08.954Z,64.30
2019-03-19T23:25:38.138Z,64.50
2019-03-19T23:28:07.502Z,64.70
2019-03-19T23:30:36.971Z,64.60
2019-03-19T23:33:06.568Z,64.70
2019-03-19T23:35:35.663Z,65.40
2019-03-19T23:38:04.993Z,65.10
2019-03-19T23:40:34.129Z,65.10
2019-03-19T23:43:03.390Z,64.60
2019-03-19T23:45:32.627Z,63.40
2019-03-19T23:48:01.932Z,62.80
2019-03-19T23:50:30.996Z,62.60
2019-03-19T23:53:00.466Z,62.30
2019-03-19T23:55:29.828Z,62.90
2019-03-19T23:57:59.023Z,62.20
